Observation of Berlin-Dahlem in FM12 format


Date: 25.07.2021

Hour: 12 UTC
NIL The FM12 was submited to late!
Hour: 11 UTC
NIL The FM12 was submited to late!
Hour: 10 UTC

SNDL DWBD 251000
AAXX 25101
10381 42982 41303 10276 20167 30001 40091 58002 81032
    333 55310 81363 84080
    555 00324 10000 22031 2360 2405 91006 91106 91204
  BOT 10287 20252 30225 40209 50185
   666 10276 20258=
Hour: 9 UTC

SIDL DWBD 250900
AAXX 25091
10381 22982 41403 10261 20165 30002 40093 57002 81084
    333 20181 3/013 55310 60007 81362 84080
    555 00300 10000 22029 2360 2407 91005 91106 91204
  BOT 10265 20236 30219 40209 50185
   666 10262 20244=
Hour: 8 UTC

SNDL DWBD 250800
AAXX 25081
10381 42981 31103 10244 20157 30003 40094 51002 82084
    333 55310 82362
    555 00279 10000 22033 2360 2405 91006 91107 91204
  BOT 10235 20222 30216 40210 50185
   666 10244 20218=
Hour: 7 UTC

SNDL DWBD 250700 CCA
AAXX 25071
10381 42981 31103 10220 20152 30003 40095 50002 83081
    333 55308 81359 83362
    555 00223 10000 22034 2346 2405 91007 91108 91205
  BOT 10219 20217 30215 40211 50185
   666 10220 20207=
Hour: 6 UTC

SMDL DWBD 250600
AAXX 25061
10381 02981 61204 10207 20149 30004 40097 52004 60002 85082
    333 10271 20181 30013 55109 55302 60007 70000 85362 83080
    555 00224 10000 20230 22039 2314 2404 91006 91106 91204
  BOT 10210 20212 30216 40211 50185
           80000 100000 20657 3087 4055 600//00 70300 80140 901060
   666 10207 20194=
Hour: 5 UTC

SNDL DWBD 250500
AAXX 25051
10381 42980 70904 10195 20140 30001 40094 51001 86082
    333 55300 82359 85363 85080
    555 00185 10000 22038 2300 2405 91006 91106 91204
  BOT 10203 20211 30218 40211 50185
   666 10195 20185=
Hour: 4 UTC

SNDL DWBD 250400
AAXX 25041
10381 42980 70904 10185 20133 30001 40094 55001 8705/
    333 55300 84359 83365
    555 00157 10000 22036 2300 2405 91006 91106 91204
  BOT 10201 20214 30221 40212 50185
   666 10189 20181=
Hour: 3 UTC

SIDL DWBD 250300
AAXX 25031
10381 22980 60904 10188 20124 30000 40093 56010 82031
    333 55300 60007 82362 85080
    555 00137 10000 22037 2300 2407 91006 91106 91204
  BOT 10205 20218 30224 40212 50185
   666 10194 20188=
Hour: 2 UTC

SNDL DWBD 250200
AAXX 25021
10381 42980 71004 10194 20120 30000 40093 57013 83031
    333 55300 83362 85080
    555 00143 10000 22038 2300 2405 91006 91106 91204
  BOT 10211 20223 30228 40212 50185
   666 10209 20193=
Hour: 1 UTC

SNDL DWBD 250100
AAXX 25011
10381 42980 61103 10209 20116 30002 40095 58010 82031
    333 55300 82370 85080
    555 00158 10000 22030 2300 2405 91005 91107 91204
  BOT 10219 20228 30231 40212 50185
   666 10217 20208=
Hour: 0 UTC

SMDL DWBD 250000
AAXX 25001
10381 02980 71204 10217 20118 30010 40103 50003 60001 8707/
    333 30/// 55300 60007 83364 85370
    555 00172 10000 22040 2300 2401 91006 91107 91205
  BOT 10226 20233 30234 40211 50185
           80000 100000
   666 10232 20217=

Yesterday Synops


Hour: 23 UTC

SNDL DWBD 242300
AAXX 24231
10381 42980 71305 10229 20120 30013 40105 53005 8705/
    333 55300 83365 86371
    555 00200 10000 22045 2300 2405 91007 91108 91205
  BOT 10232 20237 30237 40211 50185
   666 10238 20229=
Hour: 22 UTC

SNDL DWBD 242200
AAXX 24221
10381 42980 71205 10235 20123 30012 40104 53007 85071
    333 55300 82364 84365
    555 00210 10000 22048 2300 2405 91008 91109 91206
  BOT 10236 20242 30241 40210 50185
   666 10242 20235=
Hour: 21 UTC

SIDL DWBD 242100
AAXX 24211
10381 22980 71205 10241 20125 30007 40099 50003 85071
    333 55300 60007 82364 84366
    555 00209 10000 22054 2300 2407 91008 91108 91205
  BOT 10244 20248 30244 40209 50184
   666 10248 20240=
Hour: 20 UTC

SNDL DWBD 242000
AAXX 24201
10381 42980 71103 10246 20126 30008 40100 55001 82551
    333 55300 82658 85366
    555 00207 10000 22033 2300 2405 91006 91106 91204
  BOT 10253 20256 30248 40208 50184
   666 10261 20246=
Hour: 19 UTC

SNDL DWBD 241900
AAXX 24191
10381 42980 71003 10260 20126 30005 40096 55008 84532
    333 55300 84658 85071
    555 00234 10000 22031 2300 2405 91005 91107 91204
  BOT 10265 20263 30251 40206 50184
   666 10271 20259=
Hour: 18 UTC

SMDL DWBD 241800
AAXX 24181
10381 02881 71004 10269 20134 30004 40095 57013 60002 82438
    333 10300 20178 30017 55301 60007 81857 86273
    555 00253 10000 22036 2302 2402 91006 91107 91204
  BOT 10278 20271 30253 40205 50184
           80000 100000
   666 10279 20268=
Hour: 17 UTC

SNDL DWBD 241700
AAXX 24171
10381 42881 70903 10278 20131 30009 40100 57012 81236
    333 55305 81857 86280
    555 00271 10000 22031 2332 2405 91005 91106 91204
  BOT 10292 20279 30253 40204 50184
   666 10296 20278=
Hour: 16 UTC

SNDL DWBD 241600
AAXX 24161
10381 42881 21303 10293 20128 30013 40103 57010 81231
    333 55307 81857
    555 00328 10000 22032 2343 2405 91007 91107 91203
  BOT 10304 20282 30251 40203 50184
   666 10300 20284=
Hour: 15 UTC

SIDL DWBD 241500
AAXX 24151
10381 22881 31401 10298 20132 30017 40107 57009 83201
    333 55309 60007 83857
    555 00345 10000 22013 2354 2407 91004 91107 91203
  BOT 10314 20283 30247 40201 50184
   666 10300 20281=
Hour: 14 UTC

SNDL DWBD 241400
AAXX 24141
10381 42880 31902 10288 20132 30021 40111 57009 83201
    333 55304 83857
    555 00317 10000 22020 2325 2405 91005 91108 91203
  BOT 10313 20280 30242 40201 50184
   666 10299 20281=
Hour: 13 UTC

SNDL DWBD 241300
AAXX 24131
10381 42880 41003 10290 20133 30023 40113 57008 84201
    333 55307 84856
    555 00346 10000 22032 2340 2405 91006 91108 91205
  BOT 10313 20275 30236 40200 50184
   666 10292 20279=
Hour: 12 UTC

SMDL DWBD 241200
AAXX 24121
10381 02880 21104 10281 20129 30026 40117 57010 60001 82800
    333 30/// 55309 60007 81856
    555 00312 10000 22037 2355 2401 91007 91108 91205
  BOT 10311 20266 30227 40200 50184
           80000 100000
   666 10292 20274=
Hour: 11 UTC

SNDL DWBD 241100
AAXX 24111
10381 42780 11204 10281 20137 30030 40121 57009 81130
    333 55310 81856
    555 00325 10000 22037 2360 2405 91007 91109 91205
  BOT 10295 20253 30218 40201 50184
   666 10281 20268=
Hour: 10 UTC

SNDL DWBD 241000
AAXX 24101
10381 42980 01104 10271 20135 30031 40122 57012
    333 55310
    555 00311 10000 22039 2360 2405 91008 91108 91205
  BOT 10276 20236 30209 40201 50184
   666 10272 20258=
Hour: 9 UTC

SIDL DWBD 240900
AAXX 24091
10381 22980 01104 10258 20137 30036 40127 57010
    333 20140 3/011 55310 60007
    555 00289 10000 22042 2360 2407 91008 91108 91204
  BOT 10250 20217 30202 40202 50184
   666 10258 20237=
Hour: 8 UTC

SNDL DWBD 240800
AAXX 24081
10381 42975 01203 10238 20135 30039 40131 58004
    333 55310
    555 00266 10000 22034 2360 2405 91007 91107 91204
  BOT 10213 20199 30198 40203 50184
   666 10238 20209=
Hour: 7 UTC

SNDL DWBD 240700
AAXX 24071
10381 42975 01303 10209 20142 30043 40136 50001
    333 55310
    555 00197 10000 22030 2360 2405 91006 91106 91203
  BOT 10189 20193 30198 40204 50184
   666 10209 20178=
Hour: 6 UTC

SMDL DWBD 240600
AAXX 24061
10381 02975 01103 10178 20146 30046 40140 55000 60002
    333 10230 20140 30011 55119 55310 60007 70000
    555 00165 10000 20194 22026 2360 2404 91005 91105 91203
  BOT 10183 20191 30199 40204 50184
           80000 100000 20712 3073 4039 600//00 70250 80139 901070
   666 10178 20155=
Hour: 5 UTC

SNDL DWBD 240500
AAXX 24051
10381 42981 00903 10155 20143 30043 40138 55006
    333 55308
    555 00138 10000 22027 2345 2405 91004 91106 91204
  BOT 10178 20191 30201 40205 50184
   666 10155 20144=
Hour: 4 UTC

SNDL DWBD 240400 CCA
AAXX 24041
10381 42982 10904 10144 20136 30042 40137 57009 81030
    333 55300 81360
    555 00113 10000 22037 2300 2405 91005 91105 91204
  BOT 10178 20194 30204 40205 50184
   666 10144 20141=
Hour: 3 UTC

SIDL DWBD 240300
AAXX 24031
10381 22982 00804 10142 20131 30046 40141 57009
    333 55300 60007
    555 00107 10000 22035 2300 2407 91005 91105 91204
  BOT 10181 20197 30208 40206 50184
   666 10144 20141=
Hour: 2 UTC

SNDL DWBD 240200
AAXX 24021
10381 42982 00803 10142 20129 30049 40144 57008
    333 55300
    555 00110 10000 22033 2300 2405 91004 91105 91204
  BOT 10186 20201 30211 40206 50184
   666 10143 20140=
Hour: 1 UTC

SNDL DWBD 240100
AAXX 24011
10381 42982 00703 10142 20134 30051 40146 57007
    333 55300
    555 00111 10000 22030 2300 2405 91004 91104 91203
  BOT 10191 20206 30215 40206 50184
   666 10147 20141=
Hour: 0 UTC

SMDL DWBD 240000
AAXX 24001
10381 02882 10702 10147 20134 30055 40150 57004 60001 81500
    333 30/// 55300 60007 81657
    555 00115 10000 22022 2300 2401 91003 91103 91203
  BOT 10196 20211 30219 40206 50184
           80000 100000
   666 10155 20147=

The day before yesterday Synops


Hour: 23 UTC

SNDL DWBD 232300
AAXX 23231
10381 42882 10503 10155 20133 30057 40152 58001 81500
    333 55300 81657
    555 00122 10000 22025 2300 2405 91003 91103 91203
  BOT 10203 20216 30223 40205 50184
   666 10162 20155=
Hour: 22 UTC

SNDL DWBD 232200
AAXX 23221
10381 42982 10503 10162 20131 30058 40153 50002 81031
    333 55300 81359
    555 00126 10000 22026 2300 2405 91003 91103 91203
  BOT 10210 20223 30228 40205 50184
   666 10168 20161=
Hour: 21 UTC

SIDL DWBD 232100
AAXX 23211
10381 22981 00303 10168 20135 30059 40153 53003
    333 55300 60007
    555 00132 10000 22025 2300 2407 91003 91104 91203
  BOT 10219 20231 30233 40204 50184
   666 10182 20168=
Hour: 20 UTC

SNDL DWBD 232000 CCA
AAXX 23201
10381 42981 10102 10182 20134 30058 40152 53001 80001
    333 55300 81080
    555 00140 10000 22023 2300 2405 91003 91103 91203
  BOT 10231 20240 30237 40202 50183
   666 10208 20182=
Hour: 19 UTC

SNDL DWBD 231900
AAXX 23191
10381 42781 13302 10208 20124 30056 40149 56004 81500
    333 55307 81650
    555 00166 10000 22020 2343 2405 91003 91103 91202
  BOT 10247 20251 30241 40201 50183
   666 10230 20207=
Hour: 18 UTC

SMDL DWBD 231800
AAXX 23181
10381 02780 13202 10230 20118 30056 40149 57007 60002 81800
    333 10250 20169 30018 55310 60007 81850
    555 00217 10000 22017 2360 2402 91003 91103 91202
  BOT 10263 20262 30244 40200 50184
           80000 100000
   666 10239 20228=
Hour: 17 UTC

SNDL DWBD 231700
AAXX 23171
10381 42780 12802 10237 20112 30057 40149 57010 81100
    333 55310 81850
    555 00251 10000 22024 2360 2405 91004 91106 91203
  BOT 10283 20271 30244 40198 50183
   666 10245 20237=
Hour: 16 UTC

SNDL DWBD 231600
AAXX 23161
10381 42779 13201 10243 20124 30060 40152 57011 81100
    333 55310 81850
    555 00282 10000 22010 2359 2405 91005 91106 91204
  BOT 10296 20273 30241 40197 50183
   666 10245 20238=
Hour: 15 UTC

SIDL DWBD 231500
AAXX 23151
10381 22779 13103 10242 20126 30063 40155 57012 81800
    333 55309 60007 81850
    555 00282 10000 22034 2356 2407 91006 91106 91204
  BOT 10303 20273 30237 40196 50183
   666 10249 20234=
Hour: 14 UTC

SNDL DWBD 231400
AAXX 23141
10381 42678 22803 10246 20123 30067 40159 57011 82800
    333 55310 82846
    555 00296 10000 22030 2358 2405 91006 91107 91204
  BOT 10305 20268 30231 40195 50183
   666 10250 20239=
Hour: 13 UTC

SNDL DWBD 231300
AAXX 23131
10381 42678 22402 10240 20124 30071 40163 57010 82200
    333 55308 82845
    555 00292 10000 22023 2350 2405 91005 91107 91204
  BOT 10295 20261 30224 40195 50183
   666 10243 20231=
Hour: 12 UTC

SMDL DWBD 231200 CCA
AAXX 23121
10381 02678 32803 10237 20128 30075 40167 57009 60001 82201
    333 30/// 55308 60007 82841
    555 00288 10000 22027 2348 2401 91005 91106 91203
  BOT 10292 20249 30216 40195 50183
           80000 100000
   666 10239 20226=
Hour: 11 UTC

SNDL DWBD 231100 CCA
AAXX 23111
10381 42678 32902 10226 20129 30078 40171 57007 83800
    333 55307 82841
    555 00272 10000 22022 2344 2405 91007 91107 91203
  BOT 10276 20237 30208 40195 50183
   666 10233 20217=
Hour: 10 UTC

SNDL DWBD 231000
AAXX 23101
10381 42678 22702 10219 20126 30081 40174 58003 82800
    333 55310 81838
    555 00255 10000 22017 2360 2405 91005 91105 91203
  BOT 10254 20223 30202 40196 50183
   666 10220 20209=
Hour: 9 UTC

SIDL DWBD 230900
AAXX 23091
10381 22675 52802 10215 20127 30084 40177 50000 85800
    333 20139 3/011 55310 60007 81838 84646
    555 00256 10000 22019 2360 2407 91004 91104 91202
  BOT 10239 20210 30196 40196 50183
   666 10219 20202=
Hour: 8 UTC

SNDL DWBD 230800
AAXX 23081
10381 42675 23102 10202 20135 30085 40179 55000 82800
    333 55309 82840
    555 00227 10000 22016 2354 2405 91003 91104 91202
  BOT 10210 20197 30192 40197 50184
   666 10202 20189=
Hour: 7 UTC

SNDL DWBD 230700
AAXX 23071
10381 42670 33302 10189 20149 30084 40178 50000 83800
    333 55305 82836
    555 00201 10000 22016 2329 2405 91003 91103 91202
  BOT 10194 20190 30191 40197 50184
   666 10189 20169=
Hour: 6 UTC

SMDL DWBD 230600
AAXX 23061
10381 02670 43001 10169 20161 30084 40179 58001 60002 84800
    333 10212 20139 30011 55028 55305 60007 70000 83833
    555 00184 10000 20197 22009 2329 2404 91002 91102 91201
  BOT 10183 20185 30191 40198 50184
           80000 100000 20170 3062 4039 600//00 70231 80157 901200
   666 10169 20151=
Hour: 5 UTC

SNDL DWBD 230500 CCA
AAXX 23051
10381 42670 50601 10151 20149 30085 40180 55003 85800
    333 55300 82840 84656
    555 00149 10000 22009 2300 2405 91001 91102 91202
  BOT 10175 20184 30192 40198 50184
   666 10151 20141=
Hour: 4 UTC

SNDL DWBD 230400 CCA
AAXX 23041
10381 42670 53102 10141 20139 30084 40180 57005 85800
    333 55300 82840 84656
    555 00122 10000 22023 2300 2405 91003 91103 91203
  BOT 10170 20185 30195 40199 50184
   666 10141 20139=
Hour: 3 UTC

SIDL DWBD 230300 CCA
AAXX 23031
10381 22772 32101 10140 20138 30085 40181 57007 83500
    333 55300 60007 83656
    555 00114 10000 22005 2300 2407 91001 91101 91201
  BOT 10173 20188 30198 40199 50184
   666 10144 20140=
Hour: 2 UTC

SNDL DWBD 230200
AAXX 23021
10381 42775 30000 10143 20141 30088 40184 58004 83500
    333 55300 83656
    555 00108 10000 22004 2300 2405 91001 91101 91201
  BOT 10177 20192 30201 40199 50183
   666 10149 20143=
Hour: 1 UTC

SNDL DWBD 230100
AAXX 23011
10381 42775 13101 10149 20144 30089 40184 57004 81500
    333 55300 81656
    555 00112 10000 22008 2300 2405 91001 91103 91203
  BOT 10182 20197 30204 40199 50184
   666 10157 20149=
Hour: 0 UTC

SMDL DWBD 230000
AAXX 23001
10381 02880 32703 10157 20145 30092 40187 56003 60001 83500
    333 30/// 55300 60007 83656
    555 00123 10000 22026 2300 2401 91003 91103 91203
  BOT 10190 20202 30207 40199 50184
           80000 100000
   666 10173 20157=